logo
Rechercher aéroport 
image banner adimage banner adimage banner ad
image banner ad

95CL - Verdugo Hills Hospital

Situé à Glendale, United States

ICAO - 95CL, IATA -

Données fournies par Airmate  

Information générale

Coordonnées: N34°12'15" W118°13'2"
Élévation : 1430 feet MSL.
Variation magnétique : 14° East
Voir autres Aéroports à California

Données opérationnelles

Special qualification required
Heure actuelle UTC:
Heure actuelle locale:
Météo à : KBUR - Bob Hope ( 13 km )
METAR: KBUR 261453Z 16003KT 9SM CLR 24/09 A2994 RMK AO2 SLP122 T02390094 53010
TAF: KBUR 261125Z 2612/2712 VRB03KT P6SM SKC FM262100 16008KT P6SM SKC FM270300 VRB03KT P6SM SKC
Voir NOTAMs / SUP AIP / TFR affectant cet aéroport [VIEW]
Fréquences de communication: [VIEW]

Pistes:

Coordonnées de l'aéroport

Adresse: Glendale United States

Vue satellite de 95CL